Cut Bank Municipal Airport
KCTB : rendu visible

Aérodrome :











RETROUVEZ-NOUS SUR...

 
LOGIN :

S'inscrire | Disclaimer

   EN    FR    IT 

 









Légende :    VFR   VFR Marginal   IFR   IFR Intensif   IFR Très Intensif
Visi : 
Plafond : 
>= 8 km
>= 3000ft
5 à 8 km
1000 à 3000 ft
1500m à 5 km
500 à 1000 ft
800 à 1500m
200 à 500 ft
< 800m
< 200 ft
Symboles :   Orages  Brouillard  Fortes neiges  Fortes précipitations  Vent > 20 kt






- Altitude de l'aérodrome : 3854 ft


KCTB - Cut Bank Municipal

DERNIER METAR :
  • 250456Z AUTO 25013KT 10SM CLR 09/03 A3004 RMK AO2 SLP168 T00890028

METARs EXPIRÉS :
  • 250356Z AUTO 26014KT 10SM CLR 10/03 A3005 RMK AO2 SLP167 T01000028
  • 250256Z AUTO 25013KT 10SM CLR 13/03 A3003 RMK AO2 SLP159 T01280028 55000

TAF KCTB
Valide du 25 à 02h jusqu'au 26 à 00h UTC


250135Z 2502/2524 26009KT P6SM BKN090
FM250400 27009KT P6SM FEW070
FM251500 24010G21KT P6SM FEW060 BKN150
FM252100 26017G30KT P6SM SCT080 BKN120
FIR KZLC / Amérique du Nord



MET'MAP, la Météo Aéronautique d'un coup d'oeil ! - Copyright ORBIFLY Décembre 2007 - Disclaimer

ORBIFLY MET'MAP TEAM :

Programmation & Développement : Alexandra Zaïnal
Sur une idée originale de : Baudouin d'Aumeries
Assistance à la programmation : Marc-Olivier Méhu
Soutien technique & logistique : Manuel Goepfert

Contact : metmap@orbifly.com




SOURCES & CREDITS :

   NOAA       Earth
Advisory